sensor_id;sensor_type;location;lat;lon;timestamp;P1;durP1;ratioP1;P2;durP2;ratioP2
14052;SDS011;7101;51.600;7.310;2023-02-26T00:00:39;7.87;;;1.67;;
14052;SDS011;7101;51.600;7.310;2023-02-26T00:03:08;5.70;;;1.70;;
14052;SDS011;7101;51.600;7.310;2023-02-26T00:05:35;4.07;;;1.50;;
14052;SDS011;7101;51.600;7.310;2023-02-26T00:08:01;2.90;;;1.42;;
14052;SDS011;7101;51.600;7.310;2023-02-26T00:10:30;4.40;;;1.33;;
14052;SDS011;7101;51.600;7.310;2023-02-26T00:12:58;5.18;;;1.65;;
14052;SDS011;7101;51.600;7.310;2023-02-26T00:15:26;7.73;;;1.40;;
14052;SDS011;7101;51.600;7.310;2023-02-26T00:17:54;4.00;;;1.40;;
14052;SDS011;7101;51.600;7.310;2023-02-26T00:20:26;3.50;;;1.30;;
14052;SDS011;7101;51.600;7.310;2023-02-26T00:22:53;4.65;;;1.42;;
14052;SDS011;7101;51.600;7.310;2023-02-26T00:25:20;6.85;;;1.67;;
14052;SDS011;7101;51.600;7.310;2023-02-26T00:27:47;4.20;;;1.48;;
14052;SDS011;7101;51.600;7.310;2023-02-26T00:30:15;3.07;;;1.43;;
14052;SDS011;7101;51.600;7.310;2023-02-26T00:32:44;4.82;;;1.40;;
14052;SDS011;7101;51.600;7.310;2023-02-26T00:35:13;9.27;;;1.77;;
14052;SDS011;7101;51.600;7.310;2023-02-26T00:37:51;4.47;;;1.50;;
14052;SDS011;7101;51.600;7.310;2023-02-26T00:40:25;6.93;;;1.42;;
14052;SDS011;7101;51.600;7.310;2023-02-26T00:43:00;6.80;;;1.70;;
14052;SDS011;7101;51.600;7.310;2023-02-26T00:45:27;4.07;;;1.43;;
14052;SDS011;7101;51.600;7.310;2023-02-26T00:48:03;5.47;;;1.73;;
14052;SDS011;7101;51.600;7.310;2023-02-26T00:50:58;4.32;;;1.33;;
14052;SDS011;7101;51.600;7.310;2023-02-26T00:53:30;3.37;;;1.50;;
14052;SDS011;7101;51.600;7.310;2023-02-26T00:56:02;3.53;;;1.50;;
14052;SDS011;7101;51.600;7.310;2023-02-26T00:58:29;3.33;;;1.33;;
14052;SDS011;7101;51.600;7.310;2023-02-26T01:00:56;4.03;;;1.52;;
14052;SDS011;7101;51.600;7.310;2023-02-26T01:03:24;3.95;;;1.48;;
14052;SDS011;7101;51.600;7.310;2023-02-26T01:05:51;5.53;;;1.42;;
14052;SDS011;7101;51.600;7.310;2023-02-26T01:08:20;2.83;;;1.30;;
14052;SDS011;7101;51.600;7.310;2023-02-26T01:10:52;14.05;;;1.55;;
14052;SDS011;7101;51.600;7.310;2023-02-26T01:13:19;3.50;;;1.40;;
14052;SDS011;7101;51.600;7.310;2023-02-26T01:15:47;4.88;;;1.38;;
14052;SDS011;7101;51.600;7.310;2023-02-26T01:18:20;4.53;;;1.10;;
14052;SDS011;7101;51.600;7.310;2023-02-26T01:20:55;3.72;;;1.50;;
14052;SDS011;7101;51.600;7.310;2023-02-26T01:23:26;7.35;;;1.35;;
14052;SDS011;7101;51.600;7.310;2023-02-26T01:25:58;4.13;;;1.50;;
14052;SDS011;7101;51.600;7.310;2023-02-26T01:28:28;3.47;;;1.40;;
14052;SDS011;7101;51.600;7.310;2023-02-26T01:30:56;2.77;;;1.20;;
14052;SDS011;7101;51.600;7.310;2023-02-26T01:33:31;5.75;;;1.50;;
14052;SDS011;7101;51.600;7.310;2023-02-26T01:36:07;3.85;;;1.33;;
14052;SDS011;7101;51.600;7.310;2023-02-26T01:38:40;2.55;;;1.20;;
14052;SDS011;7101;51.600;7.310;2023-02-26T01:44:09;3.53;;;1.27;;
14052;SDS011;7101;51.600;7.310;2023-02-26T01:46:44;3.50;;;1.33;;
14052;SDS011;7101;51.600;7.310;2023-02-26T01:49:22;5.90;;;1.60;;
14052;SDS011;7101;51.600;7.310;2023-02-26T01:51:51;6.57;;;1.50;;
14052;SDS011;7101;51.600;7.310;2023-02-26T01:54:19;2.83;;;1.25;;
14052;SDS011;7101;51.600;7.310;2023-02-26T01:56:49;4.97;;;1.15;;
14052;SDS011;7101;51.600;7.310;2023-02-26T01:59:19;2.22;;;1.08;;
14052;SDS011;7101;51.600;7.310;2023-02-26T02:01:48;7.50;;;1.10;;
14052;SDS011;7101;51.600;7.310;2023-02-26T02:04:17;4.05;;;1.25;;
14052;SDS011;7101;51.600;7.310;2023-02-26T02:06:49;3.00;;;0.90;;
14052;SDS011;7101;51.600;7.310;2023-02-26T02:09:16;7.40;;;1.25;;
14052;SDS011;7101;51.600;7.310;2023-02-26T02:11:51;6.78;;;1.30;;
14052;SDS011;7101;51.600;7.310;2023-02-26T02:14:27;3.63;;;1.38;;
14052;SDS011;7101;51.600;7.310;2023-02-26T02:17:01;3.67;;;1.27;;
14052;SDS011;7101;51.600;7.310;2023-02-26T02:19:42;4.80;;;1.43;;
14052;SDS011;7101;51.600;7.310;2023-02-26T02:22:52;3.65;;;1.30;;
14052;SDS011;7101;51.600;7.310;2023-02-26T02:25:53;2.92;;;1.27;;
14052;SDS011;7101;51.600;7.310;2023-02-26T02:28:39;2.72;;;1.10;;
14052;SDS011;7101;51.600;7.310;2023-02-26T02:31:21;4.13;;;1.52;;
14052;SDS011;7101;51.600;7.310;2023-02-26T02:33:51;2.45;;;1.33;;
14052;SDS011;7101;51.600;7.310;2023-02-26T02:36:23;4.00;;;1.40;;
14052;SDS011;7101;51.600;7.310;2023-02-26T02:38:57;4.25;;;1.80;;
14052;SDS011;7101;51.600;7.310;2023-02-26T02:41:29;3.67;;;1.17;;
14052;SDS011;7101;51.600;7.310;2023-02-26T02:43:59;2.58;;;1.30;;
14052;SDS011;7101;51.600;7.310;2023-02-26T02:46:31;3.20;;;1.10;;
14052;SDS011;7101;51.600;7.310;2023-02-26T02:49:04;5.47;;;1.20;;
14052;SDS011;7101;51.600;7.310;2023-02-26T02:51:36;3.17;;;1.40;;
14052;SDS011;7101;51.600;7.310;2023-02-26T02:54:05;2.43;;;0.97;;
14052;SDS011;7101;51.600;7.310;2023-02-26T02:56:37;5.35;;;1.52;;
14052;SDS011;7101;51.600;7.310;2023-02-26T02:59:10;1.92;;;1.10;;
14052;SDS011;7101;51.600;7.310;2023-02-26T03:01:43;3.50;;;1.10;;
14052;SDS011;7101;51.600;7.310;2023-02-26T03:04:11;4.43;;;1.37;;
14052;SDS011;7101;51.600;7.310;2023-02-26T03:06:40;2.53;;;0.90;;
14052;SDS011;7101;51.600;7.310;2023-02-26T03:09:09;5.10;;;1.30;;
14052;SDS011;7101;51.600;7.310;2023-02-26T03:11:36;5.50;;;1.20;;
14052;SDS011;7101;51.600;7.310;2023-02-26T03:14:03;5.73;;;1.10;;
14052;SDS011;7101;51.600;7.310;2023-02-26T03:16:39;4.20;;;1.00;;
14052;SDS011;7101;51.600;7.310;2023-02-26T03:19:20;2.53;;;1.10;;
14052;SDS011;7101;51.600;7.310;2023-02-26T03:21:54;7.43;;;1.40;;
14052;SDS011;7101;51.600;7.310;2023-02-26T03:24:27;2.95;;;1.20;;
14052;SDS011;7101;51.600;7.310;2023-02-26T03:26:59;1.90;;;1.10;;
14052;SDS011;7101;51.600;7.310;2023-02-26T03:29:32;3.20;;;1.07;;
14052;SDS011;7101;51.600;7.310;2023-02-26T03:32:04;6.57;;;1.45;;
14052;SDS011;7101;51.600;7.310;2023-02-26T03:34:38;4.95;;;1.52;;
14052;SDS011;7101;51.600;7.310;2023-02-26T03:37:10;3.87;;;1.20;;
14052;SDS011;7101;51.600;7.310;2023-02-26T03:39:43;5.53;;;1.27;;
14052;SDS011;7101;51.600;7.310;2023-02-26T03:42:17;4.10;;;1.20;;
14052;SDS011;7101;51.600;7.310;2023-02-26T03:44:48;3.37;;;1.50;;
14052;SDS011;7101;51.600;7.310;2023-02-26T03:47:19;5.40;;;1.30;;
14052;SDS011;7101;51.600;7.310;2023-02-26T03:49:48;6.10;;;1.37;;
14052;SDS011;7101;51.600;7.310;2023-02-26T03:52:18;5.27;;;1.63;;
14052;SDS011;7101;51.600;7.310;2023-02-26T03:54:48;4.17;;;1.33;;
14052;SDS011;7101;51.600;7.310;2023-02-26T03:57:21;4.03;;;1.40;;
14052;SDS011;7101;51.600;7.310;2023-02-26T03:59:48;2.97;;;1.47;;
14052;SDS011;7101;51.600;7.310;2023-02-26T04:02:17;4.55;;;1.23;;
14052;SDS011;7101;51.600;7.310;2023-02-26T04:04:49;4.67;;;1.13;;
14052;SDS011;7101;51.600;7.310;2023-02-26T04:07:20;2.60;;;1.37;;
14052;SDS011;7101;51.600;7.310;2023-02-26T04:09:48;3.03;;;1.07;;
14052;SDS011;7101;51.600;7.310;2023-02-26T04:12:19;2.05;;;1.17;;
14052;SDS011;7101;51.600;7.310;2023-02-26T04:14:48;5.65;;;1.38;;
14052;SDS011;7101;51.600;7.310;2023-02-26T04:17:16;4.30;;;1.30;;
14052;SDS011;7101;51.600;7.310;2023-02-26T04:19:43;5.63;;;1.23;;
14052;SDS011;7101;51.600;7.310;2023-02-26T04:22:10;3.10;;;1.05;;
14052;SDS011;7101;51.600;7.310;2023-02-26T04:24:36;5.72;;;1.33;;
14052;SDS011;7101;51.600;7.310;2023-02-26T04:27:03;4.07;;;1.50;;
14052;SDS011;7101;51.600;7.310;2023-02-26T04:29:32;4.90;;;1.30;;
14052;SDS011;7101;51.600;7.310;2023-02-26T04:31:59;5.97;;;1.47;;
14052;SDS011;7101;51.600;7.310;2023-02-26T04:34:26;6.73;;;1.70;;
14052;SDS011;7101;51.600;7.310;2023-02-26T04:36:52;5.57;;;1.40;;
14052;SDS011;7101;51.600;7.310;2023-02-26T04:39:19;6.43;;;1.47;;
14052;SDS011;7101;51.600;7.310;2023-02-26T04:41:46;3.85;;;1.17;;
14052;SDS011;7101;51.600;7.310;2023-02-26T04:44:13;4.73;;;1.30;;
14052;SDS011;7101;51.600;7.310;2023-02-26T04:46:41;6.03;;;1.53;;
14052;SDS011;7101;51.600;7.310;2023-02-26T04:49:08;6.13;;;1.40;;
14052;SDS011;7101;51.600;7.310;2023-02-26T04:51:35;2.97;;;1.17;;
14052;SDS011;7101;51.600;7.310;2023-02-26T04:54:02;4.77;;;1.43;;
14052;SDS011;7101;51.600;7.310;2023-02-26T04:56:30;3.17;;;1.40;;
14052;SDS011;7101;51.600;7.310;2023-02-26T04:58:57;4.22;;;1.30;;
14052;SDS011;7101;51.600;7.310;2023-02-26T05:01:25;2.30;;;1.20;;
14052;SDS011;7101;51.600;7.310;2023-02-26T05:03:53;3.63;;;1.20;;
14052;SDS011;7101;51.600;7.310;2023-02-26T05:06:20;3.93;;;1.20;;
14052;SDS011;7101;51.600;7.310;2023-02-26T05:08:47;6.43;;;1.87;;
14052;SDS011;7101;51.600;7.310;2023-02-26T05:11:14;3.73;;;1.63;;
14052;SDS011;7101;51.600;7.310;2023-02-26T05:13:41;4.37;;;1.50;;
14052;SDS011;7101;51.600;7.310;2023-02-26T05:16:08;2.70;;;1.33;;
14052;SDS011;7101;51.600;7.310;2023-02-26T05:18:34;5.53;;;1.50;;
14052;SDS011;7101;51.600;7.310;2023-02-26T05:21:03;6.37;;;1.80;;
14052;SDS011;7101;51.600;7.310;2023-02-26T05:23:31;4.63;;;1.47;;
14052;SDS011;7101;51.600;7.310;2023-02-26T05:25:58;4.30;;;1.50;;
14052;SDS011;7101;51.600;7.310;2023-02-26T05:28:25;7.70;;;1.30;;
14052;SDS011;7101;51.600;7.310;2023-02-26T05:30:52;5.23;;;1.63;;
14052;SDS011;7101;51.600;7.310;2023-02-26T05:33:21;5.47;;;1.30;;
14052;SDS011;7101;51.600;7.310;2023-02-26T05:35:48;6.00;;;1.40;;
14052;SDS011;7101;51.600;7.310;2023-02-26T05:38:16;4.07;;;1.27;;
14052;SDS011;7101;51.600;7.310;2023-02-26T05:40:44;3.73;;;1.20;;
14052;SDS011;7101;51.600;7.310;2023-02-26T05:43:11;2.57;;;0.93;;
14052;SDS011;7101;51.600;7.310;2023-02-26T05:45:38;5.30;;;1.50;;
14052;SDS011;7101;51.600;7.310;2023-02-26T05:48:05;4.60;;;1.30;;
14052;SDS011;7101;51.600;7.310;2023-02-26T05:50:32;3.27;;;1.17;;
14052;SDS011;7101;51.600;7.310;2023-02-26T05:52:58;2.73;;;1.23;;
14052;SDS011;7101;51.600;7.310;2023-02-26T05:55:27;4.70;;;1.27;;
14052;SDS011;7101;51.600;7.310;2023-02-26T05:57:54;3.80;;;1.43;;
14052;SDS011;7101;51.600;7.310;2023-02-26T06:00:21;3.57;;;1.43;;
14052;SDS011;7101;51.600;7.310;2023-02-26T06:02:48;2.73;;;1.37;;
14052;SDS011;7101;51.600;7.310;2023-02-26T06:05:15;2.37;;;1.00;;
14052;SDS011;7101;51.600;7.310;2023-02-26T06:07:42;3.63;;;1.50;;
14052;SDS011;7101;51.600;7.310;2023-02-26T06:10:10;4.93;;;1.30;;
14052;SDS011;7101;51.600;7.310;2023-02-26T06:12:39;4.97;;;1.27;;
14052;SDS011;7101;51.600;7.310;2023-02-26T06:15:07;3.00;;;1.30;;
14052;SDS011;7101;51.600;7.310;2023-02-26T06:17:35;4.80;;;1.33;;
14052;SDS011;7101;51.600;7.310;2023-02-26T06:20:02;4.13;;;1.23;;
14052;SDS011;7101;51.600;7.310;2023-02-26T06:22:29;2.80;;;1.20;;
14052;SDS011;7101;51.600;7.310;2023-02-26T06:24:56;3.90;;;1.47;;
14052;SDS011;7101;51.600;7.310;2023-02-26T06:27:23;4.43;;;1.30;;
14052;SDS011;7101;51.600;7.310;2023-02-26T06:29:52;7.27;;;1.80;;
14052;SDS011;7101;51.600;7.310;2023-02-26T06:32:19;3.73;;;1.40;;
14052;SDS011;7101;51.600;7.310;2023-02-26T06:34:45;6.30;;;1.50;;
14052;SDS011;7101;51.600;7.310;2023-02-26T06:37:12;4.60;;;1.50;;
14052;SDS011;7101;51.600;7.310;2023-02-26T06:39:40;4.07;;;1.33;;
14052;SDS011;7101;51.600;7.310;2023-02-26T06:42:07;3.63;;;1.50;;
14052;SDS011;7101;51.600;7.310;2023-02-26T06:44:34;5.77;;;1.37;;
14052;SDS011;7101;51.600;7.310;2023-02-26T06:47:03;5.13;;;1.10;;
14052;SDS011;7101;51.600;7.310;2023-02-26T06:49:30;4.53;;;1.30;;
14052;SDS011;7101;51.600;7.310;2023-02-26T06:51:57;3.10;;;1.30;;
14052;SDS011;7101;51.600;7.310;2023-02-26T06:54:23;5.43;;;1.33;;
14052;SDS011;7101;51.600;7.310;2023-02-26T06:56:50;5.33;;;1.40;;
14052;SDS011;7101;51.600;7.310;2023-02-26T06:59:21;5.00;;;1.40;;
14052;SDS011;7101;51.600;7.310;2023-02-26T07:01:48;5.73;;;1.57;;
14052;SDS011;7101;51.600;7.310;2023-02-26T07:04:20;3.23;;;1.20;;
14052;SDS011;7101;51.600;7.310;2023-02-26T07:06:47;3.10;;;1.30;;
14052;SDS011;7101;51.600;7.310;2023-02-26T07:09:15;4.77;;;1.40;;
14052;SDS011;7101;51.600;7.310;2023-02-26T07:11:43;5.53;;;1.20;;
14052;SDS011;7101;51.600;7.310;2023-02-26T07:14:10;4.30;;;1.50;;
14052;SDS011;7101;51.600;7.310;2023-02-26T07:16:37;2.73;;;1.30;;
14052;SDS011;7101;51.600;7.310;2023-02-26T07:19:04;3.25;;;1.13;;
14052;SDS011;7101;51.600;7.310;2023-02-26T07:21:32;9.10;;;1.60;;
14052;SDS011;7101;51.600;7.310;2023-02-26T07:23:59;10.45;;;1.67;;
14052;SDS011;7101;51.600;7.310;2023-02-26T07:26:27;6.30;;;1.58;;
14052;SDS011;7101;51.600;7.310;2023-02-26T07:28:54;3.30;;;1.33;;
14052;SDS011;7101;51.600;7.310;2023-02-26T07:31:21;4.00;;;1.27;;
14052;SDS011;7101;51.600;7.310;2023-02-26T07:33:48;2.63;;;1.00;;
14052;SDS011;7101;51.600;7.310;2023-02-26T07:36:15;3.97;;;1.25;;
14052;SDS011;7101;51.600;7.310;2023-02-26T07:38:43;3.15;;;1.23;;
14052;SDS011;7101;51.600;7.310;2023-02-26T07:41:10;3.08;;;1.17;;
14052;SDS011;7101;51.600;7.310;2023-02-26T07:43:37;4.63;;;1.25;;
14052;SDS011;7101;51.600;7.310;2023-02-26T07:46:04;4.50;;;1.40;;
14052;SDS011;7101;51.600;7.310;2023-02-26T07:48:32;2.90;;;1.37;;
14052;SDS011;7101;51.600;7.310;2023-02-26T07:51:01;2.50;;;1.10;;
14052;SDS011;7101;51.600;7.310;2023-02-26T07:53:28;1.92;;;1.17;;
14052;SDS011;7101;51.600;7.310;2023-02-26T07:55:56;5.30;;;1.48;;
14052;SDS011;7101;51.600;7.310;2023-02-26T07:58:23;3.65;;;1.25;;
14052;SDS011;7101;51.600;7.310;2023-02-26T08:00:50;5.10;;;1.23;;
14052;SDS011;7101;51.600;7.310;2023-02-26T08:03:18;3.33;;;1.30;;
14052;SDS011;7101;51.600;7.310;2023-02-26T08:05:45;2.58;;;1.08;;
14052;SDS011;7101;51.600;7.310;2023-02-26T08:08:12;2.90;;;1.30;;
14052;SDS011;7101;51.600;7.310;2023-02-26T08:10:39;4.35;;;1.35;;
14052;SDS011;7101;51.600;7.310;2023-02-26T08:13:09;4.90;;;1.30;;
14052;SDS011;7101;51.600;7.310;2023-02-26T08:15:36;4.03;;;1.02;;
14052;SDS011;7101;51.600;7.310;2023-02-26T08:18:03;1.90;;;1.23;;
14052;SDS011;7101;51.600;7.310;2023-02-26T08:20:33;2.88;;;1.20;;
14052;SDS011;7101;51.600;7.310;2023-02-26T08:23:00;3.40;;;1.40;;
14052;SDS011;7101;51.600;7.310;2023-02-26T08:25:27;4.70;;;1.55;;
14052;SDS011;7101;51.600;7.310;2023-02-26T08:27:54;3.00;;;1.25;;
14052;SDS011;7101;51.600;7.310;2023-02-26T08:30:23;4.68;;;1.30;;
14052;SDS011;7101;51.600;7.310;2023-02-26T08:32:51;3.33;;;1.45;;
14052;SDS011;7101;51.600;7.310;2023-02-26T08:35:17;3.97;;;1.25;;
14052;SDS011;7101;51.600;7.310;2023-02-26T08:37:44;3.15;;;1.02;;
14052;SDS011;7101;51.600;7.310;2023-02-26T08:40:12;4.32;;;1.42;;
14052;SDS011;7101;51.600;7.310;2023-02-26T08:42:39;3.20;;;1.40;;
14052;SDS011;7101;51.600;7.310;2023-02-26T08:45:06;4.25;;;1.48;;
14052;SDS011;7101;51.600;7.310;2023-02-26T08:47:35;3.65;;;1.52;;
14052;SDS011;7101;51.600;7.310;2023-02-26T08:50:05;4.40;;;1.05;;
14052;SDS011;7101;51.600;7.310;2023-02-26T08:52:33;4.93;;;1.50;;
14052;SDS011;7101;51.600;7.310;2023-02-26T08:55:00;3.95;;;1.23;;
14052;SDS011;7101;51.600;7.310;2023-02-26T08:57:28;11.10;;;1.27;;
14052;SDS011;7101;51.600;7.310;2023-02-26T08:59:54;2.20;;;1.10;;
14052;SDS011;7101;51.600;7.310;2023-02-26T09:02:21;5.50;;;1.10;;
14052;SDS011;7101;51.600;7.310;2023-02-26T09:04:49;5.22;;;1.35;;
14052;SDS011;7101;51.600;7.310;2023-02-26T09:07:16;5.47;;;1.57;;
14052;SDS011;7101;51.600;7.310;2023-02-26T09:09:43;5.18;;;1.30;;
14052;SDS011;7101;51.600;7.310;2023-02-26T09:12:10;5.43;;;1.42;;
14052;SDS011;7101;51.600;7.310;2023-02-26T09:14:37;2.17;;;1.40;;
14052;SDS011;7101;51.600;7.310;2023-02-26T09:17:04;2.97;;;1.20;;
14052;SDS011;7101;51.600;7.310;2023-02-26T09:19:31;4.00;;;1.40;;
14052;SDS011;7101;51.600;7.310;2023-02-26T09:21:59;4.63;;;1.25;;
14052;SDS011;7101;51.600;7.310;2023-02-26T09:24:26;2.42;;;1.20;;
14052;SDS011;7101;51.600;7.310;2023-02-26T09:26:53;3.53;;;1.42;;
14052;SDS011;7101;51.600;7.310;2023-02-26T09:29:20;4.78;;;1.17;;
14052;SDS011;7101;51.600;7.310;2023-02-26T09:31:47;6.10;;;1.25;;
14052;SDS011;7101;51.600;7.310;2023-02-26T09:34:14;2.65;;;1.10;;
14052;SDS011;7101;51.600;7.310;2023-02-26T09:36:41;3.78;;;1.23;;
14052;SDS011;7101;51.600;7.310;2023-02-26T09:39:10;2.10;;;1.13;;
14052;SDS011;7101;51.600;7.310;2023-02-26T09:41:38;3.17;;;1.10;;
14052;SDS011;7101;51.600;7.310;2023-02-26T09:44:10;2.13;;;0.82;;
14052;SDS011;7101;51.600;7.310;2023-02-26T09:46:44;3.63;;;1.30;;
14052;SDS011;7101;51.600;7.310;2023-02-26T09:49:27;6.03;;;1.15;;
14052;SDS011;7101;51.600;7.310;2023-02-26T09:52:01;4.40;;;1.30;;
14052;SDS011;7101;51.600;7.310;2023-02-26T09:54:40;3.65;;;1.08;;
14052;SDS011;7101;51.600;7.310;2023-02-26T09:57:19;4.03;;;1.55;;
14052;SDS011;7101;51.600;7.310;2023-02-26T09:59:51;3.28;;;0.93;;
14052;SDS011;7101;51.600;7.310;2023-02-26T10:02:19;4.70;;;1.00;;
14052;SDS011;7101;51.600;7.310;2023-02-26T10:04:50;3.45;;;0.93;;
14052;SDS011;7101;51.600;7.310;2023-02-26T10:07:29;3.05;;;1.20;;
14052;SDS011;7101;51.600;7.310;2023-02-26T10:10:16;2.58;;;0.93;;
14052;SDS011;7101;51.600;7.310;2023-02-26T10:12:48;3.50;;;1.25;;
14052;SDS011;7101;51.600;7.310;2023-02-26T10:15:18;4.25;;;0.98;;
14052;SDS011;7101;51.600;7.310;2023-02-26T10:20:37;2.92;;;1.10;;
14052;SDS011;7101;51.600;7.310;2023-02-26T10:23:12;1.95;;;0.60;;
14052;SDS011;7101;51.600;7.310;2023-02-26T10:25:50;1.65;;;0.95;;
14052;SDS011;7101;51.600;7.310;2023-02-26T10:28:27;5.80;;;1.10;;
14052;SDS011;7101;51.600;7.310;2023-02-26T10:31:05;2.05;;;0.90;;
14052;SDS011;7101;51.600;7.310;2023-02-26T10:33:38;2.10;;;1.08;;
14052;SDS011;7101;51.600;7.310;2023-02-26T10:36:13;2.92;;;0.80;;
14052;SDS011;7101;51.600;7.310;2023-02-26T10:38:44;3.75;;;0.98;;
14052;SDS011;7101;51.600;7.310;2023-02-26T10:41:19;3.05;;;0.90;;
14052;SDS011;7101;51.600;7.310;2023-02-26T10:43:54;1.40;;;0.90;;
14052;SDS011;7101;51.600;7.310;2023-02-26T10:46:28;3.42;;;1.05;;
14052;SDS011;7101;51.600;7.310;2023-02-26T10:49:09;3.25;;;0.93;;
14052;SDS011;7101;51.600;7.310;2023-02-26T10:51:50;2.63;;;1.05;;
14052;SDS011;7101;51.600;7.310;2023-02-26T10:54:20;2.92;;;0.95;;
14052;SDS011;7101;51.600;7.310;2023-02-26T10:56:54;1.35;;;0.80;;
14052;SDS011;7101;51.600;7.310;2023-02-26T10:59:21;2.90;;;0.85;;
14052;SDS011;7101;51.600;7.310;2023-02-26T11:01:49;4.20;;;1.00;;
14052;SDS011;7101;51.600;7.310;2023-02-26T11:04:18;8.07;;;1.02;;
14052;SDS011;7101;51.600;7.310;2023-02-26T11:06:49;5.60;;;1.30;;
14052;SDS011;7101;51.600;7.310;2023-02-26T11:09:19;2.13;;;1.05;;
14052;SDS011;7101;51.600;7.310;2023-02-26T11:11:50;1.38;;;0.73;;
14052;SDS011;7101;51.600;7.310;2023-02-26T11:14:21;1.83;;;0.90;;
14052;SDS011;7101;51.600;7.310;2023-02-26T11:16:51;3.65;;;0.85;;
14052;SDS011;7101;51.600;7.310;2023-02-26T11:19:22;1.80;;;0.80;;
14052;SDS011;7101;51.600;7.310;2023-02-26T11:21:52;1.95;;;0.80;;
14052;SDS011;7101;51.600;7.310;2023-02-26T11:24:22;1.90;;;0.90;;
14052;SDS011;7101;51.600;7.310;2023-02-26T11:26:55;1.65;;;0.80;;
14052;SDS011;7101;51.600;7.310;2023-02-26T11:29:24;2.80;;;0.90;;
14052;SDS011;7101;51.600;7.310;2023-02-26T11:31:51;2.30;;;0.90;;
14052;SDS011;7101;51.600;7.310;2023-02-26T11:34:22;1.02;;;0.73;;
14052;SDS011;7101;51.600;7.310;2023-02-26T11:36:51;3.15;;;1.20;;
14052;SDS011;7101;51.600;7.310;2023-02-26T11:39:22;2.25;;;0.98;;
14052;SDS011;7101;51.600;7.310;2023-02-26T11:41:52;3.60;;;1.10;;
14052;SDS011;7101;51.600;7.310;2023-02-26T11:44:25;3.30;;;1.20;;
14052;SDS011;7101;51.600;7.310;2023-02-26T11:47:01;2.30;;;0.85;;
14052;SDS011;7101;51.600;7.310;2023-02-26T11:49:32;1.65;;;0.90;;
14052;SDS011;7101;51.600;7.310;2023-02-26T11:52:03;1.65;;;1.00;;
14052;SDS011;7101;51.600;7.310;2023-02-26T11:54:39;1.73;;;1.00;;
14052;SDS011;7101;51.600;7.310;2023-02-26T11:57:10;1.90;;;0.88;;
14052;SDS011;7101;51.600;7.310;2023-02-26T11:59:42;1.83;;;0.90;;
14052;SDS011;7101;51.600;7.310;2023-02-26T12:02:17;3.38;;;0.90;;
14052;SDS011;7101;51.600;7.310;2023-02-26T12:04:49;2.22;;;0.88;;
14052;SDS011;7101;51.600;7.310;2023-02-26T12:07:19;1.50;;;0.70;;
14052;SDS011;7101;51.600;7.310;2023-02-26T12:09:47;1.75;;;0.90;;
14052;SDS011;7101;51.600;7.310;2023-02-26T12:12:23;1.27;;;0.73;;
14052;SDS011;7101;51.600;7.310;2023-02-26T12:15:19;2.88;;;0.90;;
14052;SDS011;7101;51.600;7.310;2023-02-26T12:18:00;1.50;;;0.60;;
14052;SDS011;7101;51.600;7.310;2023-02-26T12:20:39;3.40;;;0.90;;
14052;SDS011;7101;51.600;7.310;2023-02-26T12:23:23;3.10;;;0.63;;
14052;SDS011;7101;51.600;7.310;2023-02-26T12:26:02;1.30;;;0.57;;
14052;SDS011;7101;51.600;7.310;2023-02-26T12:31:40;2.08;;;0.70;;
14052;SDS011;7101;51.600;7.310;2023-02-26T12:34:39;1.73;;;0.75;;
14052;SDS011;7101;51.600;7.310;2023-02-26T12:37:26;1.85;;;0.75;;
14052;SDS011;7101;51.600;7.310;2023-02-26T12:40:08;3.30;;;1.10;;
14052;SDS011;7101;51.600;7.310;2023-02-26T12:42:49;2.47;;;1.05;;
14052;SDS011;7101;51.600;7.310;2023-02-26T12:45:26;2.42;;;1.25;;
14052;SDS011;7101;51.600;7.310;2023-02-26T12:48:15;2.05;;;1.05;;
14052;SDS011;7101;51.600;7.310;2023-02-26T12:51:13;2.55;;;0.70;;
14052;SDS011;7101;51.600;7.310;2023-02-26T12:53:50;2.80;;;0.82;;
14052;SDS011;7101;51.600;7.310;2023-02-26T12:56:40;1.50;;;0.90;;
14052;SDS011;7101;51.600;7.310;2023-02-26T12:59:30;1.80;;;0.77;;
14052;SDS011;7101;51.600;7.310;2023-02-26T13:02:12;1.77;;;0.63;;
14052;SDS011;7101;51.600;7.310;2023-02-26T13:04:58;1.58;;;0.80;;
14052;SDS011;7101;51.600;7.310;2023-02-26T13:07:50;1.50;;;0.70;;
14052;SDS011;7101;51.600;7.310;2023-02-26T13:10:27;2.53;;;0.90;;
14052;SDS011;7101;51.600;7.310;2023-02-26T13:13:10;0.80;;;0.60;;
14052;SDS011;7101;51.600;7.310;2023-02-26T13:15:52;0.85;;;0.63;;
14052;SDS011;7101;51.600;7.310;2023-02-26T13:18:26;2.63;;;1.00;;
14052;SDS011;7101;51.600;7.310;2023-02-26T13:21:00;1.25;;;0.80;;
14052;SDS011;7101;51.600;7.310;2023-02-26T13:23:34;2.90;;;0.93;;
14052;SDS011;7101;51.600;7.310;2023-02-26T13:26:06;3.20;;;0.93;;
14052;SDS011;7101;51.600;7.310;2023-02-26T13:28:37;2.20;;;0.82;;
14052;SDS011;7101;51.600;7.310;2023-02-26T13:31:08;2.78;;;1.20;;
14052;SDS011;7101;51.600;7.310;2023-02-26T13:33:40;1.63;;;0.70;;
14052;SDS011;7101;51.600;7.310;2023-02-26T13:36:08;1.48;;;0.85;;
14052;SDS011;7101;51.600;7.310;2023-02-26T13:38:39;3.25;;;0.98;;
14052;SDS011;7101;51.600;7.310;2023-02-26T13:41:15;2.45;;;0.80;;
14052;SDS011;7101;51.600;7.310;2023-02-26T13:44:05;1.60;;;0.90;;
14052;SDS011;7101;51.600;7.310;2023-02-26T13:46:48;1.88;;;1.00;;
14052;SDS011;7101;51.600;7.310;2023-02-26T13:49:25;1.13;;;0.85;;
14052;SDS011;7101;51.600;7.310;2023-02-26T13:51:57;1.80;;;1.10;;
14052;SDS011;7101;51.600;7.310;2023-02-26T13:54:32;1.52;;;0.80;;
14052;SDS011;7101;51.600;7.310;2023-02-26T13:57:05;1.90;;;0.85;;
14052;SDS011;7101;51.600;7.310;2023-02-26T14:02:49;1.88;;;0.90;;
14052;SDS011;7101;51.600;7.310;2023-02-26T14:05:30;1.00;;;0.80;;
14052;SDS011;7101;51.600;7.310;2023-02-26T14:14:26;1.77;;;0.75;;
14052;SDS011;7101;51.600;7.310;2023-02-26T14:20:20;0.85;;;0.63;;
14052;SDS011;7101;51.600;7.310;2023-02-26T14:22:50;2.72;;;0.80;;
14052;SDS011;7101;51.600;7.310;2023-02-26T14:25:26;1.25;;;0.80;;
14052;SDS011;7101;51.600;7.310;2023-02-26T14:28:18;1.67;;;0.98;;
14052;SDS011;7101;51.600;7.310;2023-02-26T14:31:05;1.00;;;0.90;;
14052;SDS011;7101;51.600;7.310;2023-02-26T14:33:39;1.95;;;0.80;;
14052;SDS011;7101;51.600;7.310;2023-02-26T14:36:13;5.25;;;1.20;;
14052;SDS011;7101;51.600;7.310;2023-02-26T14:38:42;3.75;;;0.95;;
14052;SDS011;7101;51.600;7.310;2023-02-26T14:41:12;1.88;;;1.08;;
14052;SDS011;7101;51.600;7.310;2023-02-26T14:43:48;2.40;;;1.08;;
14052;SDS011;7101;51.600;7.310;2023-02-26T14:46:20;5.85;;;1.13;;
14052;SDS011;7101;51.600;7.310;2023-02-26T14:48:47;1.25;;;0.82;;
14052;SDS011;7101;51.600;7.310;2023-02-26T14:51:18;2.00;;;0.90;;
14052;SDS011;7101;51.600;7.310;2023-02-26T14:53:59;1.30;;;0.90;;
14052;SDS011;7101;51.600;7.310;2023-02-26T14:56:42;1.38;;;0.70;;
14052;SDS011;7101;51.600;7.310;2023-02-26T14:59:21;2.45;;;0.93;;
14052;SDS011;7101;51.600;7.310;2023-02-26T15:02:09;2.75;;;1.23;;
14052;SDS011;7101;51.600;7.310;2023-02-26T15:04:52;2.30;;;1.02;;
14052;SDS011;7101;51.600;7.310;2023-02-26T15:07:47;4.10;;;1.05;;
14052;SDS011;7101;51.600;7.310;2023-02-26T15:10:37;3.35;;;1.00;;
14052;SDS011;7101;51.600;7.310;2023-02-26T15:13:24;2.40;;;1.00;;
14052;SDS011;7101;51.600;7.310;2023-02-26T15:16:02;4.93;;;1.40;;
14052;SDS011;7101;51.600;7.310;2023-02-26T15:18:46;4.15;;;1.10;;
14052;SDS011;7101;51.600;7.310;2023-02-26T15:21:25;3.85;;;1.35;;
14052;SDS011;7101;51.600;7.310;2023-02-26T15:24:00;2.13;;;0.98;;
14052;SDS011;7101;51.600;7.310;2023-02-26T15:26:30;1.92;;;1.10;;
14052;SDS011;7101;51.600;7.310;2023-02-26T15:29:00;2.53;;;1.08;;
14052;SDS011;7101;51.600;7.310;2023-02-26T15:31:30;3.28;;;1.10;;
14052;SDS011;7101;51.600;7.310;2023-02-26T15:34:00;3.15;;;1.20;;
14052;SDS011;7101;51.600;7.310;2023-02-26T15:36:28;2.60;;;1.15;;
14052;SDS011;7101;51.600;7.310;2023-02-26T15:38:57;2.60;;;1.02;;
14052;SDS011;7101;51.600;7.310;2023-02-26T15:41:27;2.88;;;1.13;;
14052;SDS011;7101;51.600;7.310;2023-02-26T15:43:56;2.15;;;1.00;;
14052;SDS011;7101;51.600;7.310;2023-02-26T15:46:26;1.30;;;1.20;;
14052;SDS011;7101;51.600;7.310;2023-02-26T15:48:58;1.95;;;1.02;;